Time;durP1;ratioP1;P1;durP2;ratioP2;P2;SDS_P1;SDS_P2;PMS_P1;PMS_P2;Temp;Humidity;BMP_temperature;BMP_pressure;BME280_temperature;BME280_humidity;BME280_pressure;Samples;Min_cycle;Max_cycle;Signal;HPM_P1;HPM_P2
2023/08/08 00:01:11;;;;;;;;;;;;;;;;;;5068013;28;19965;-68
2023/08/08 00:03:37;;;;;;;;;;;;;;;;;;5071459;28;20841;-67
2023/08/08 00:06:03;;;;;;;;;;;;;;;;;;5071974;28;19925;-67
2023/08/08 00:08:29;;;;;;;;;;;;;;;;;;5069018;28;19927;-67
2023/08/08 00:10:55;;;;;;;;;;;;;;;;;;5070868;28;19929;-68
2023/08/08 00:13:21;;;;;;;;;;;;;;;;;;5053229;28;19921;-67
2023/08/08 00:15:46;;;;;;;;;;;;;;;;;;5052246;28;19936;-67
2023/08/08 00:18:12;;;;;;;;;;;;;;;;;;5070087;28;19920;-68
2023/08/08 00:20:38;;;;;;;;;;;;;;;;;;5071856;28;20282;-67
2023/08/08 00:23:04;;;;;;;;;;;;;;;;;;5052931;28;19921;-66
2023/08/08 00:25:30;;;;;;;;;;;;;;;;;;5070860;28;19924;-67
2023/08/08 00:27:56;;;;;;;;;;;;;;;;;;5069575;28;20408;-67
2023/08/08 00:30:22;;;;;;;;;;;;;;;;;;5069326;28;19956;-67
2023/08/08 00:32:48;;;;;;;;;;;;;;;;;;5069321;28;20007;-67
2023/08/08 00:35:14;;;;;;;;;;;;;;;;;;5071533;28;19929;-67
2023/08/08 00:37:39;;;;;;;;;;;;;;;;;;5072340;28;19924;-67
2023/08/08 00:40:06;;;;;;;;;;;;;;;;;;5072336;28;19925;-67
2023/08/08 00:42:32;;;;;;;;;;;;;;;;;;5072134;28;19927;-68
2023/08/08 00:45:03;;;;;;;;;;;;;;;;;;5071584;28;19924;-67
2023/08/08 00:47:29;;;;;;;;;;;;;;;;;;5068127;28;19928;-67
2023/08/08 00:49:55;;;;;;;;;;;;;;;;;;5068440;28;19925;-67
2023/08/08 00:52:21;;;;;;;;;;;;;;;;;;5070205;28;20019;-67
2023/08/08 00:54:46;;;;;;;;;;;;;;;;;;5071043;28;19924;-67
2023/08/08 00:57:12;;;;;;;;;;;;;;;;;;5069333;28;19932;-66
2023/08/08 00:59:38;;;;;;;;;;;;;;;;;;5067624;28;19928;-66
2023/08/08 01:02:04;;;;;;;;;;;;;;;;;;5069263;28;20417;-66
2023/08/08 01:04:30;;;;;;;;;;;;;;;;;;5068091;28;19929;-68
2023/08/08 01:06:56;;;;;;;;;;;;;;;;;;5071474;28;19924;-67
2023/08/08 01:09:22;;;;;;;;;;;;;;;;;;5069815;28;19933;-67
2023/08/08 01:11:49;;;;;;;;;;;;;;;;;;5054102;28;19927;-67
2023/08/08 01:14:15;;;;;;;;;;;;;;;;;;5068956;28;19936;-67
2023/08/08 01:16:41;;;;;;;;;;;;;;;;;;5052873;28;19924;-67
2023/08/08 01:19:07;;;;;;;;;;;;;;;;;;5068579;28;19949;-66
2023/08/08 01:21:33;;;;;;;;;;;;;;;;;;5069354;28;20286;-67
2023/08/08 01:23:59;;;;;;;;;;;;;;;;;;5067764;28;19921;-67
2023/08/08 01:26:25;;;;;;;;;;;;;;;;;;5049577;28;19932;-67
2023/08/08 01:28:50;;;;;;;;;;;;;;;;;;5068225;28;20007;-68
2023/08/08 01:31:16;;;;;;;;;;;;;;;;;;5069805;28;19924;-68
2023/08/08 01:33:42;;;;;;;;;;;;;;;;;;5071744;28;19925;-66
2023/08/08 01:36:08;;;;;;;;;;;;;;;;;;5071883;28;20016;-67
2023/08/08 01:38:34;;;;;;;;;;;;;;;;;;5071675;28;19920;-67
2023/08/08 01:41:00;;;;;;;;;;;;;;;;;;5071566;28;20012;-67
2023/08/08 01:43:26;;;;;;;;;;;;;;;;;;5071714;28;20011;-67
2023/08/08 01:45:52;;;;;;;;;;;;;;;;;;5071867;28;19920;-68
2023/08/08 01:48:18;;;;;;;;;;;;;;;;;;5070339;28;20015;-67
2023/08/08 01:50:44;;;;;;;;;;;;;;;;;;5053733;28;20011;-67
2023/08/08 01:53:09;;;;;;;;;;;;;;;;;;5071644;28;19974;-67
2023/08/08 01:55:35;;;;;;;;;;;;;;;;;;5036814;28;19936;-67
2023/08/08 01:58:01;;;;;;;;;;;;;;;;;;5060579;28;19927;-67
2023/08/08 02:00:27;;;;;;;;;;;;;;;;;;5058467;28;19924;-67
2023/08/08 02:02:53;;;;;;;;;;;;;;;;;;5066295;28;19924;-68
2023/08/08 02:05:22;;;;;;;;;;;;;;;;;;5048718;28;20003;-67
2023/08/08 02:07:48;;;;;;;;;;;;;;;;;;5060614;28;19925;-67
2023/08/08 02:10:14;;;;;;;;;;;;;;;;;;5066322;28;19935;-67
2023/08/08 02:12:40;;;;;;;;;;;;;;;;;;5070337;28;20283;-67
2023/08/08 02:15:06;;;;;;;;;;;;;;;;;;5066090;28;19924;-67
2023/08/08 02:17:31;;;;;;;;;;;;;;;;;;5035676;28;20007;-66
2023/08/08 02:19:57;;;;;;;;;;;;;;;;;;5070429;28;19931;-67
2023/08/08 02:22:23;;;;;;;;;;;;;;;;;;5069845;28;20023;-67
2023/08/08 02:24:49;;;;;;;;;;;;;;;;;;5070786;28;19969;-66
2023/08/08 02:27:15;;;;;;;;;;;;;;;;;;5069921;28;20767;-67
2023/08/08 02:29:41;;;;;;;;;;;;;;;;;;5070175;28;19932;-67
2023/08/08 02:32:07;;;;;;;;;;;;;;;;;;5070020;28;19971;-67
2023/08/08 02:34:33;;;;;;;;;;;;;;;;;;5069737;28;19971;-67
2023/08/08 02:36:59;;;;;;;;;;;;;;;;;;5066562;28;20009;-67
2023/08/08 02:39:25;;;;;;;;;;;;;;;;;;5065356;28;20525;-67
2023/08/08 02:41:50;;;;;;;;;;;;;;;;;;5070980;28;20019;-68
2023/08/08 02:44:16;;;;;;;;;;;;;;;;;;5067275;28;19921;-67
2023/08/08 02:46:42;;;;;;;;;;;;;;;;;;5068735;28;19921;-67
2023/08/08 02:49:08;;;;;;;;;;;;;;;;;;5054682;28;19925;-67
2023/08/08 02:51:34;;;;;;;;;;;;;;;;;;5065651;28;19932;-67
2023/08/08 02:54:00;;;;;;;;;;;;;;;;;;5070979;28;19921;-67
2023/08/08 02:56:26;;;;;;;;;;;;;;;;;;5072685;28;20537;-67
2023/08/08 02:58:52;;;;;;;;;;;;;;;;;;5053901;28;19928;-67
2023/08/08 03:01:18;;;;;;;;;;;;;;;;;;5052538;28;20348;-66
2023/08/08 03:03:44;;;;;;;;;;;;;;;;;;5073405;28;19928;-67
2023/08/08 03:06:10;;;;;;;;;;;;;;;;;;5071799;28;19928;-67
2023/08/08 03:08:35;;;;;;;;;;;;;;;;;;5071909;28;19920;-67
2023/08/08 03:11:01;;;;;;;;;;;;;;;;;;5066399;28;20389;-68
2023/08/08 03:13:27;;;;;;;;;;;;;;;;;;5070945;28;19967;-67
2023/08/08 03:15:53;;;;;;;;;;;;;;;;;;5072437;28;20435;-67
2023/08/08 03:18:22;;;;;;;;;;;;;;;;;;5071648;28;19974;-68
2023/08/08 03:20:48;;;;;;;;;;;;;;;;;;5069589;28;20341;-68
2023/08/08 03:23:14;;;;;;;;;;;;;;;;;;5051883;28;20011;-68
2023/08/08 03:25:40;;;;;;;;;;;;;;;;;;5071272;28;19921;-68
2023/08/08 03:28:06;;;;;;;;;;;;;;;;;;5059567;28;19925;-68
2023/08/08 03:30:32;;;;;;;;;;;;;;;;;;5075856;28;19924;-68
2023/08/08 03:32:58;;;;;;;;;;;;;;;;;;5073547;28;20289;-67
2023/08/08 03:35:24;;;;;;;;;;;;;;;;;;5063871;28;19932;-67
2023/08/08 03:37:50;;;;;;;;;;;;;;;;;;5068744;28;19931;-67
2023/08/08 03:40:16;;;;;;;;;;;;;;;;;;5069317;28;19920;-68
2023/08/08 03:42:42;;;;;;;;;;;;;;;;;;5057947;28;19924;-67
2023/08/08 03:45:08;;;;;;;;;;;;;;;;;;5070049;28;19920;-67
2023/08/08 03:47:34;;;;;;;;;;;;;;;;;;5067749;28;19931;-67
2023/08/08 03:50:00;;;;;;;;;;;;;;;;;;5070873;28;20328;-68
2023/08/08 03:52:26;;;;;;;;;;;;;;;;;;5072504;28;20328;-68
2023/08/08 03:54:51;;;;;;;;;;;;;;;;;;5051917;28;20065;-67
2023/08/08 03:57:17;;;;;;;;;;;;;;;;;;5068295;28;20309;-68
2023/08/08 03:59:43;;;;;;;;;;;;;;;;;;5069599;28;19921;-68
2023/08/08 04:02:09;;;;;;;;;;;;;;;;;;5065682;28;19943;-67
2023/08/08 04:04:35;;;;;;;;;;;;;;;;;;5070992;28;20001;-67
2023/08/08 04:07:01;;;;;;;;;;;;;;;;;;5070903;28;20011;-67
2023/08/08 04:09:27;;;;;;;;;;;;;;;;;;5069676;28;19925;-68
2023/08/08 04:11:53;;;;;;;;;;;;;;;;;;5068841;28;19921;-68
2023/08/08 04:14:19;;;;;;;;;;;;;;;;;;5070219;28;19920;-67
2023/08/08 04:16:45;;;;;;;;;;;;;;;;;;5066411;28;19933;-67
2023/08/08 04:19:11;;;;;;;;;;;;;;;;;;5068007;28;19924;-68
2023/08/08 04:21:37;;;;;;;;;;;;;;;;;;5072314;28;19921;-67
2023/08/08 04:24:02;;;;;;;;;;;;;;;;;;5070153;28;19924;-68
2023/08/08 04:26:28;;;;;;;;;;;;;;;;;;5069457;28;19931;-68
2023/08/08 04:28:55;;;;;;;;;;;;;;;;;;5068814;28;20453;-68
2023/08/08 04:31:24;;;;;;;;;;;;;;;;;;5070279;28;19942;-68
2023/08/08 04:33:50;;;;;;;;;;;;;;;;;;5070193;28;20581;-68
2023/08/08 04:36:16;;;;;;;;;;;;;;;;;;5069638;28;19978;-68
2023/08/08 04:38:42;;;;;;;;;;;;;;;;;;5070306;28;19920;-69
2023/08/08 04:41:07;;;;;;;;;;;;;;;;;;5068520;28;19928;-68
2023/08/08 04:43:33;;;;;;;;;;;;;;;;;;5050940;28;19924;-68
2023/08/08 04:45:59;;;;;;;;;;;;;;;;;;5066453;28;19936;-68
2023/08/08 04:48:25;;;;;;;;;;;;;;;;;;5068198;28;19929;-68
2023/08/08 04:50:51;;;;;;;;;;;;;;;;;;5067086;28;19920;-68
2023/08/08 04:53:17;;;;;;;;;;;;;;;;;;5029410;28;19963;-68
2023/08/08 04:55:43;;;;;;;;;;;;;;;;;;5068772;28;19929;-68
2023/08/08 04:58:09;;;;;;;;;;;;;;;;;;5070468;28;19920;-69
2023/08/08 05:00:35;;;;;;;;;;;;;;;;;;5067926;28;20405;-69
2023/08/08 05:03:01;;;;;;;;;;;;;;;;;;5068407;28;19924;-68
2023/08/08 05:05:27;;;;;;;;;;;;;;;;;;5051230;28;20450;-68
2023/08/08 05:07:53;;;;;;;;;;;;;;;;;;5070054;28;19921;-68
2023/08/08 05:10:19;;;;;;;;;;;;;;;;;;5069863;28;19928;-68
2023/08/08 05:12:44;;;;;;;;;;;;;;;;;;5067737;28;20375;-67
2023/08/08 05:15:10;;;;;;;;;;;;;;;;;;5068121;28;19975;-68
2023/08/08 05:17:36;;;;;;;;;;;;;;;;;;5052400;28;19989;-68
2023/08/08 05:20:03;;;;;;;;;;;;;;;;;;5070236;28;19963;-68
2023/08/08 05:22:29;;;;;;;;;;;;;;;;;;5070818;28;19927;-68
2023/08/08 05:24:55;;;;;;;;;;;;;;;;;;5067925;28;20007;-68
2023/08/08 05:27:21;;;;;;;;;;;;;;;;;;5069870;28;20377;-68
2023/08/08 05:29:47;;;;;;;;;;;;;;;;;;5051171;28;19924;-68
2023/08/08 05:32:13;;;;;;;;;;;;;;;;;;5064527;28;19943;-68
2023/08/08 05:34:38;;;;;;;;;;;;;;;;;;5064166;28;19921;-68
2023/08/08 05:37:04;;;;;;;;;;;;;;;;;;5034089;28;19987;-67
2023/08/08 05:39:31;;;;;;;;;;;;;;;;;;5070383;28;19924;-68
2023/08/08 05:41:56;;;;;;;;;;;;;;;;;;5051148;28;19965;-68
2023/08/08 05:44:22;;;;;;;;;;;;;;;;;;5070684;28;19920;-67
2023/08/08 05:46:48;;;;;;;;;;;;;;;;;;5070396;28;20657;-67
2023/08/08 05:49:14;;;;;;;;;;;;;;;;;;5067582;28;19928;-67
2023/08/08 05:51:40;;;;;;;;;;;;;;;;;;5054055;28;19928;-68
2023/08/08 05:54:06;;;;;;;;;;;;;;;;;;5052583;28;19920;-68
2023/08/08 05:56:32;;;;;;;;;;;;;;;;;;5070003;28;19935;-67
2023/08/08 05:58:58;;;;;;;;;;;;;;;;;;5069127;28;19921;-68
2023/08/08 06:01:24;;;;;;;;;;;;;;;;;;5066648;28;19920;-68
2023/08/08 06:03:50;;;;;;;;;;;;;;;;;;5063114;28;20011;-68
2023/08/08 06:06:15;;;;;;;;;;;;;;;;;;5068314;28;20389;-68
2023/08/08 06:08:41;;;;;;;;;;;;;;;;;;5069013;28;20012;-67
2023/08/08 06:11:07;;;;;;;;;;;;;;;;;;5068460;28;20451;-67
2023/08/08 06:13:33;;;;;;;;;;;;;;;;;;5068056;28;19924;-67
2023/08/08 06:16:01;;;;;;;;;;;;;;;;;;5052084;28;19978;-67
2023/08/08 06:18:26;;;;;;;;;;;;;;;;;;5048839;28;19921;-67
2023/08/08 06:20:52;;;;;;;;;;;;;;;;;;5052092;28;20322;-68
2023/08/08 06:23:18;;;;;;;;;;;;;;;;;;5071336;28;19938;-67
2023/08/08 06:25:44;;;;;;;;;;;;;;;;;;5056936;28;19920;-67
2023/08/08 06:28:11;;;;;;;;;;;;;;;;;;5072325;28;19981;-67
2023/08/08 06:30:37;;;;;;;;;;;;;;;;;;5071554;28;19925;-67
2023/08/08 06:33:03;;;;;;;;;;;;;;;;;;5069112;28;19966;-67
2023/08/08 06:35:29;;;;;;;;;;;;;;;;;;5074105;28;19925;-67
2023/08/08 06:37:54;;;;;;;;;;;;;;;;;;5052956;28;20416;-67
2023/08/08 06:40:21;;;;;;;;;;;;;;;;;;5068447;28;19925;-67
2023/08/08 06:42:47;;;;;;;;;;;;;;;;;;5072706;28;19924;-66
2023/08/08 06:45:12;;;;;;;;;;;;;;;;;;5071404;28;20430;-67
2023/08/08 06:47:38;;;;;;;;;;;;;;;;;;5072782;28;19967;-68
2023/08/08 06:50:05;;;;;;;;;;;;;;;;;;5070715;28;19990;-67
2023/08/08 06:52:31;;;;;;;;;;;;;;;;;;5065786;28;19920;-67
2023/08/08 06:54:56;;;;;;;;;;;;;;;;;;5070136;28;20415;-67
2023/08/08 06:57:22;;;;;;;;;;;;;;;;;;5054777;28;19924;-67
2023/08/08 06:59:50;;;;;;;;;;;;;;;;;;5053983;28;19924;-67
2023/08/08 07:02:16;;;;;;;;;;;;;;;;;;5070148;28;19920;-68
2023/08/08 07:04:42;;;;;;;;;;;;;;;;;;5050258;28;20603;-68
2023/08/08 07:07:08;;;;;;;;;;;;;;;;;;5070718;28;19995;-67
2023/08/08 07:09:34;;;;;;;;;;;;;;;;;;5070377;28;19934;-67
2023/08/08 07:12:00;;;;;;;;;;;;;;;;;;5069893;28;20003;-67
2023/08/08 07:14:26;;;;;;;;;;;;;;;;;;5067894;28;19928;-67
2023/08/08 07:16:53;;;;;;;;;;;;;;;;;;5084736;28;19928;-67
2023/08/08 07:19:21;;;;;;;;;;;;;;;;;;5070645;28;19943;-67
2023/08/08 07:21:47;;;;;;;;;;;;;;;;;;5048199;23;19971;-61
2023/08/08 07:24:13;;;;;;;;;;;;;;;;;;5053835;28;20341;-61
2023/08/08 07:26:39;;;;;;;;;;;;;;;;;;5051356;28;19933;-61
2023/08/08 07:29:05;;;;;;;;;;;;;;;;;;5053446;28;19936;-61
2023/08/08 07:31:31;;;;;;;;;;;;;;;;;;5052158;28;19947;-61
2023/08/08 07:33:57;;;;;;;;;;;;;;;;;;5040648;28;19943;-61
2023/08/08 07:36:23;;;;;;;;;;;;;;;;;;5046097;28;20266;-61
2023/08/08 07:38:49;;;;;;;;;;;;;;;;;;5030207;28;19971;-61
2023/08/08 07:41:15;;;;;;;;;;;;;;;;;;5028830;28;20317;-61
2023/08/08 07:43:41;;;;;;;;;;;;;;;;;;5044740;28;19979;-61
2023/08/08 07:46:07;;;;;;;;;;;;;;;;;;5049823;28;19975;-61
2023/08/08 07:48:33;;;;;;;;;;;;;;;;;;5051393;28;19932;-61
2023/08/08 07:50:58;;;;;;;;;;;;;;;;;;5052756;28;19936;-61
2023/08/08 07:53:24;;;;;;;;;;;;;;;;;;5051857;28;20459;-62
2023/08/08 07:55:50;;;;;;;;;;;;;;;;;;5051807;28;20267;-61
2023/08/08 07:58:16;;;;;;;;;;;;;;;;;;5047875;28;19968;-62
2023/08/08 08:00:42;;;;;;;;;;;;;;;;;;5046198;28;19991;-61
2023/08/08 08:03:08;;;;;;;;;;;;;;;;;;5051048;28;19959;-62
2023/08/08 08:05:34;;;;;;;;;;;;;;;;;;5045661;28;20343;-61
2023/08/08 08:08:00;;;;;;;;;;;;;;;;;;5045864;28;19952;-61
2023/08/08 08:10:26;;;;;;;;;;;;;;;;;;5030250;28;19959;-61
2023/08/08 08:12:57;;;;;;;;;;;;;;;;;;5034900;28;20341;-61
2023/08/08 08:15:23;;;;;;;;;;;;;;;;;;5044515;28;19932;-61
2023/08/08 08:17:49;;;;;;;;;;;;;;;;;;5052128;28;19974;-61
2023/08/08 08:20:15;;;;;;;;;;;;;;;;;;5050691;28;19921;-61
2023/08/08 08:22:41;;;;;;;;;;;;;;;;;;5051158;28;19925;-61
2023/08/08 08:25:09;;;;;;;;;;;;;;;;;;5036815;28;20393;-61
2023/08/08 08:27:34;;;;;;;;;;;;;;;;;;5045728;28;19921;-61
2023/08/08 08:30:00;;;;;;;;;;;;;;;;;;5035928;28;19932;-61
2023/08/08 08:32:26;;;;;;;;;;;;;;;;;;5047560;28;19921;-61
2023/08/08 08:34:52;;;;;;;;;;;;;;;;;;5046095;28;19929;-61
2023/08/08 08:37:18;;;;;;;;;;;;;;;;;;5045418;28;19955;-61
2023/08/08 08:39:44;;;;;;;;;;;;;;;;;;5039620;28;20319;-61
2023/08/08 08:42:11;;;;;;;;;;;;;;;;;;5050726;28;19928;-61
2023/08/08 08:44:37;;;;;;;;;;;;;;;;;;5049089;28;19924;-61
2023/08/08 08:47:03;;;;;;;;;;;;;;;;;;5047187;28;20604;-61
2023/08/08 08:49:29;;;;;;;;;;;;;;;;;;5026592;28;20765;-61
2023/08/08 08:51:56;;;;;;;;;;;;;;;;;;5042398;28;20023;-61
2023/08/08 08:54:22;;;;;;;;;;;;;;;;;;5049181;28;19968;-61
2023/08/08 08:56:47;;;;;;;;;;;;;;;;;;5038147;28;19932;-61
2023/08/08 08:59:13;;;;;;;;;;;;;;;;;;5047814;28;19925;-61
2023/08/08 09:01:39;;;;;;;;;;;;;;;;;;5041748;28;19925;-61
2023/08/08 09:04:06;;;;;;;;;;;;;;;;;;5043945;28;20393;-61
2023/08/08 09:06:32;;;;;;;;;;;;;;;;;;5049697;28;19933;-61
2023/08/08 09:08:58;;;;;;;;;;;;;;;;;;5049039;28;20286;-61
2023/08/08 09:11:24;;;;;;;;;;;;;;;;;;5051583;28;19924;-61
2023/08/08 09:13:49;;;;;;;;;;;;;;;;;;5047942;28;19928;-61
2023/08/08 09:16:15;;;;;;;;;;;;;;;;;;5045237;28;19931;-61
2023/08/08 09:18:42;;;;;;;;;;;;;;;;;;5026420;28;19925;-61
2023/08/08 09:21:08;;;;;;;;;;;;;;;;;;5049790;28;19920;-61
2023/08/08 09:23:34;;;;;;;;;;;;;;;;;;5049233;28;20689;-61
2023/08/08 09:26:00;;;;;;;;;;;;;;;;;;5047494;28;19968;-61
2023/08/08 09:28:26;;;;;;;;;;;;;;;;;;5051887;28;19921;-61
2023/08/08 09:30:53;;;;;;;;;;;;;;;;;;5049397;28;20384;-61
2023/08/08 09:33:19;;;;;;;;;;;;;;;;;;5049285;28;19932;-61
2023/08/08 09:35:45;;;;;;;;;;;;;;;;;;5032034;28;19963;-61
2023/08/08 09:38:11;;;;;;;;;;;;;;;;;;5049972;28;19960;-61
2023/08/08 09:40:37;;;;;;;;;;;;;;;;;;5051684;28;19925;-61
2023/08/08 09:43:03;;;;;;;;;;;;;;;;;;5048097;28;20396;-61
2023/08/08 09:45:29;;;;;;;;;;;;;;;;;;5048509;28;20263;-61
2023/08/08 09:47:54;;;;;;;;;;;;;;;;;;5042333;28;19929;-61
2023/08/08 09:50:20;;;;;;;;;;;;;;;;;;5040771;28;19929;-61
2023/08/08 09:52:46;;;;;;;;;;;;;;;;;;5049537;28;19963;-61
2023/08/08 09:55:12;;;;;;;;;;;;;;;;;;5040650;28;20398;-61
2023/08/08 09:57:38;;;;;;;;;;;;;;;;;;5048155;28;19956;-61
2023/08/08 10:00:05;;;;;;;;;;;;;;;;;;5050486;28;20409;-61
2023/08/08 10:02:32;;;;;;;;;;;;;;;;;;5036663;28;20043;-60
2023/08/08 10:04:58;;;;;;;;;;;;;;;;;;5052091;28;19925;-61
2023/08/08 10:07:24;;;;;;;;;;;;;;;;;;5045395;28;20363;-61
2023/08/08 10:09:50;;;;;;;;;;;;;;;;;;5031640;28;19921;-61
2023/08/08 10:12:16;;;;;;;;;;;;;;;;;;5054704;28;20011;-61
2023/08/08 10:14:42;;;;;;;;;;;;;;;;;;5055256;28;19921;-61
2023/08/08 10:17:08;;;;;;;;;;;;;;;;;;5052869;28;20339;-60
2023/08/08 10:19:35;;;;;;;;;;;;;;;;;;5045037;28;19925;-61
2023/08/08 10:22:02;;;;;;;;;;;;;;;;;;5050479;28;20428;-61
2023/08/08 10:24:27;;;;;;;;;;;;;;;;;;5054238;28;19929;-60
2023/08/08 10:26:53;;;;;;;;;;;;;;;;;;5051300;28;20595;-61
2023/08/08 10:29:19;;;;;;;;;;;;;;;;;;5053384;28;19921;-61
2023/08/08 10:31:47;;;;;;;;;;;;;;;;;;5053278;28;21291;-60
2023/08/08 10:34:13;;;;;;;;;;;;;;;;;;5049471;28;19929;-61
2023/08/08 10:36:39;;;;;;;;;;;;;;;;;;5049241;28;19967;-60
2023/08/08 10:39:05;;;;;;;;;;;;;;;;;;5054449;28;20397;-60
2023/08/08 10:41:31;;;;;;;;;;;;;;;;;;5036195;28;20007;-60
2023/08/08 10:43:57;;;;;;;;;;;;;;;;;;5049362;28;20008;-60
2023/08/08 10:46:23;;;;;;;;;;;;;;;;;;5054261;28;20039;-60
2023/08/08 10:48:49;;;;;;;;;;;;;;;;;;5054203;28;19924;-60
2023/08/08 10:51:14;;;;;;;;;;;;;;;;;;5053307;28;20501;-60
2023/08/08 10:53:40;;;;;;;;;;;;;;;;;;5014630;28;19925;-60
2023/08/08 10:56:06;;;;;;;;;;;;;;;;;;5043381;28;19943;-60
2023/08/08 10:58:32;;;;;;;;;;;;;;;;;;5035809;28;19955;-60
2023/08/08 11:00:58;;;;;;;;;;;;;;;;;;5053083;28;19921;-60
2023/08/08 11:03:24;;;;;;;;;;;;;;;;;;5053532;28;19921;-60
2023/08/08 11:05:50;;;;;;;;;;;;;;;;;;5053962;28;19921;-60
2023/08/08 11:08:16;;;;;;;;;;;;;;;;;;5053265;28;19946;-60
2023/08/08 11:10:42;;;;;;;;;;;;;;;;;;5051346;28;19921;-61
2023/08/08 11:13:08;;;;;;;;;;;;;;;;;;5035614;28;19925;-60
2023/08/08 11:15:34;;;;;;;;;;;;;;;;;;5053786;28;20679;-60
2023/08/08 11:18:00;;;;;;;;;;;;;;;;;;5050605;28;20390;-60
2023/08/08 11:20:26;;;;;;;;;;;;;;;;;;5053644;28;19920;-61
2023/08/08 11:22:52;;;;;;;;;;;;;;;;;;5053100;28;19978;-60
2023/08/08 11:25:18;;;;;;;;;;;;;;;;;;5019826;28;20011;-60
2023/08/08 11:27:44;;;;;;;;;;;;;;;;;;5052773;28;20003;-61
2023/08/08 11:30:10;;;;;;;;;;;;;;;;;;5052684;28;19967;-61
2023/08/08 11:32:36;;;;;;;;;;;;;;;;;;5034581;28;20457;-60
2023/08/08 11:35:02;;;;;;;;;;;;;;;;;;5053823;28;20385;-60
2023/08/08 11:37:28;;;;;;;;;;;;;;;;;;5035637;28;19927;-60
2023/08/08 11:39:53;;;;;;;;;;;;;;;;;;5054087;28;19966;-60
2023/08/08 11:42:19;;;;;;;;;;;;;;;;;;5053578;28;20553;-60
2023/08/08 11:44:45;;;;;;;;;;;;;;;;;;5052498;28;19932;-61
2023/08/08 11:47:11;;;;;;;;;;;;;;;;;;5053620;28;19929;-60
2023/08/08 11:49:37;;;;;;;;;;;;;;;;;;5053873;28;20004;-61
2023/08/08 11:52:03;;;;;;;;;;;;;;;;;;5053557;28;19929;-60
2023/08/08 11:54:29;;;;;;;;;;;;;;;;;;5053471;28;20459;-60
2023/08/08 11:56:55;;;;;;;;;;;;;;;;;;5032330;28;19928;-60
2023/08/08 11:59:21;;;;;;;;;;;;;;;;;;5033517;28;19921;-60
2023/08/08 12:01:46;;;;;;;;;;;;;;;;;;5032841;28;19968;-60
2023/08/08 12:04:12;;;;;;;;;;;;;;;;;;5053273;28;19993;-60
2023/08/08 12:06:45;;;;;;;;;;;;;;;;;;5052567;28;20378;-60
2023/08/08 12:09:11;;;;;;;;;;;;;;;;;;5053081;28;19921;-60
2023/08/08 12:11:38;;;;;;;;;;;;;;;;;;5052859;28;19933;-60
2023/08/08 12:14:03;;;;;;;;;;;;;;;;;;5052954;28;19939;-60
2023/08/08 12:16:30;;;;;;;;;;;;;;;;;;5051562;28;20259;-60
2023/08/08 12:18:56;;;;;;;;;;;;;;;;;;5049163;28;19927;-60
2023/08/08 12:21:22;;;;;;;;;;;;;;;;;;5051302;28;19925;-60
2023/08/08 12:23:48;;;;;;;;;;;;;;;;;;5052583;28;19925;-60
2023/08/08 12:26:14;;;;;;;;;;;;;;;;;;5052855;28;19972;-60
2023/08/08 12:28:40;;;;;;;;;;;;;;;;;;5034615;28;19927;-60
2023/08/08 12:31:06;;;;;;;;;;;;;;;;;;5052671;28;19921;-60
2023/08/08 12:33:31;;;;;;;;;;;;;;;;;;5050834;28;20363;-60
2023/08/08 12:35:57;;;;;;;;;;;;;;;;;;5024499;28;19925;-60
2023/08/08 12:38:23;;;;;;;;;;;;;;;;;;5046447;28;19952;-60
2023/08/08 12:40:49;;;;;;;;;;;;;;;;;;5029593;28;20375;-60
2023/08/08 12:43:17;;;;;;;;;;;;;;;;;;5030667;28;19959;-61
2023/08/08 12:45:43;;;;;;;;;;;;;;;;;;5045103;28;20019;-60
2023/08/08 12:48:09;;;;;;;;;;;;;;;;;;5035643;28;20016;-60
2023/08/08 12:50:35;;;;;;;;;;;;;;;;;;5052548;28;20016;-60
2023/08/08 12:53:01;;;;;;;;;;;;;;;;;;5032543;28;19941;-61
2023/08/08 12:55:27;;;;;;;;;;;;;;;;;;5050663;28;19944;-60
2023/08/08 12:57:53;;;;;;;;;;;;;;;;;;5034083;28;20336;-61
2023/08/08 13:00:19;;;;;;;;;;;;;;;;;;5040010;28;19920;-61
2023/08/08 13:02:45;;;;;;;;;;;;;;;;;;5052171;28;19921;-61
2023/08/08 13:05:12;;;;;;;;;;;;;;;;;;5048827;28;19921;-60
2023/08/08 13:07:37;;;;;;;;;;;;;;;;;;5041084;28;19928;-61
2023/08/08 13:10:04;;;;;;;;;;;;;;;;;;5031973;28;19925;-61
2023/08/08 13:12:30;;;;;;;;;;;;;;;;;;5046521;28;19979;-61
2023/08/08 13:14:56;;;;;;;;;;;;;;;;;;5039725;28;20238;-61
2023/08/08 13:17:22;;;;;;;;;;;;;;;;;;5047004;28;19920;-60
2023/08/08 13:19:48;;;;;;;;;;;;;;;;;;5048614;28;19947;-60
2023/08/08 13:22:14;;;;;;;;;;;;;;;;;;5047647;28;19925;-60
2023/08/08 13:24:40;;;;;;;;;;;;;;;;;;5049200;28;19999;-60
2023/08/08 13:27:06;;;;;;;;;;;;;;;;;;5050261;28;19921;-60
2023/08/08 13:29:32;;;;;;;;;;;;;;;;;;5049903;28;19932;-60
2023/08/08 13:31:58;;;;;;;;;;;;;;;;;;5043581;28;20384;-60
2023/08/08 13:34:23;;;;;;;;;;;;;;;;;;5037400;28;19925;-60
2023/08/08 13:36:49;;;;;;;;;;;;;;;;;;5048865;28;19940;-60
2023/08/08 13:39:15;;;;;;;;;;;;;;;;;;5042567;28;20394;-60
2023/08/08 13:41:41;;;;;;;;;;;;;;;;;;5051441;28;19925;-60
2023/08/08 13:44:07;;;;;;;;;;;;;;;;;;5047571;28;19929;-60
2023/08/08 13:46:33;;;;;;;;;;;;;;;;;;5047619;28;20308;-60
2023/08/08 13:48:59;;;;;;;;;;;;;;;;;;5051346;28;19924;-60
2023/08/08 13:51:25;;;;;;;;;;;;;;;;;;5028320;28;19932;-60
2023/08/08 13:53:51;;;;;;;;;;;;;;;;;;5033197;28;19972;-60
2023/08/08 13:56:17;;;;;;;;;;;;;;;;;;5029697;28;20374;-60
2023/08/08 13:58:43;;;;;;;;;;;;;;;;;;5027169;28;19933;-60
2023/08/08 14:01:08;;;;;;;;;;;;;;;;;;5049535;28;20324;-60
2023/08/08 14:03:34;;;;;;;;;;;;;;;;;;5051273;28;19921;-60
2023/08/08 14:06:00;;;;;;;;;;;;;;;;;;5043016;28;19963;-61
2023/08/08 14:08:26;;;;;;;;;;;;;;;;;;5047676;28;20396;-61
2023/08/08 14:10:52;;;;;;;;;;;;;;;;;;5050117;28;19925;-61
2023/08/08 14:13:19;;;;;;;;;;;;;;;;;;5015360;28;19932;-61
2023/08/08 14:15:44;;;;;;;;;;;;;;;;;;5044713;28;19953;-60
2023/08/08 14:18:10;;;;;;;;;;;;;;;;;;5047989;28;21504;-61
2023/08/08 14:20:37;;;;;;;;;;;;;;;;;;5025163;28;19921;-61
2023/08/08 14:23:02;;;;;;;;;;;;;;;;;;5046506;28;20354;-60
2023/08/08 14:25:29;;;;;;;;;;;;;;;;;;5047989;28;19978;-61
2023/08/08 14:27:56;;;;;;;;;;;;;;;;;;5046820;28;19966;-60
2023/08/08 14:30:22;;;;;;;;;;;;;;;;;;5030455;28;19979;-60
2023/08/08 14:32:48;;;;;;;;;;;;;;;;;;5048695;28;19921;-60
2023/08/08 14:35:14;;;;;;;;;;;;;;;;;;5047244;28;19921;-61
2023/08/08 14:37:40;;;;;;;;;;;;;;;;;;5049224;28;19924;-60
2023/08/08 14:40:06;;;;;;;;;;;;;;;;;;5045873;28;20373;-61
2023/08/08 14:42:32;;;;;;;;;;;;;;;;;;5048522;28;19929;-60
2023/08/08 14:44:58;;;;;;;;;;;;;;;;;;5053115;28;19966;-60
2023/08/08 14:47:24;;;;;;;;;;;;;;;;;;5048327;28;19929;-61
2023/08/08 14:49:50;;;;;;;;;;;;;;;;;;5047298;28;19932;-61
2023/08/08 14:52:16;;;;;;;;;;;;;;;;;;5025680;28;19951;-60
2023/08/08 14:54:42;;;;;;;;;;;;;;;;;;5036215;28;20390;-61
2023/08/08 14:57:08;;;;;;;;;;;;;;;;;;5040589;28;19927;-60
2023/08/08 14:59:34;;;;;;;;;;;;;;;;;;5032702;28;19921;-60
2023/08/08 15:02:00;;;;;;;;;;;;;;;;;;5018486;28;19928;-61
2023/08/08 15:04:26;;;;;;;;;;;;;;;;;;5031031;28;20481;-61
2023/08/08 15:06:52;;;;;;;;;;;;;;;;;;5028840;28;19925;-60
2023/08/08 15:09:18;;;;;;;;;;;;;;;;;;5044702;28;19924;-60
2023/08/08 15:11:44;;;;;;;;;;;;;;;;;;5037162;28;20062;-62
2023/08/08 15:14:10;;;;;;;;;;;;;;;;;;5051040;28;19929;-61
2023/08/08 15:16:36;;;;;;;;;;;;;;;;;;5047329;28;20294;-61
2023/08/08 15:19:01;;;;;;;;;;;;;;;;;;5047136;28;20003;-61
2023/08/08 15:21:27;;;;;;;;;;;;;;;;;;5030096;28;19944;-61
2023/08/08 15:23:53;;;;;;;;;;;;;;;;;;5053143;28;19975;-60
2023/08/08 15:26:22;;;;;;;;;;;;;;;;;;5031371;28;19942;-61
2023/08/08 15:28:47;;;;;;;;;;;;;;;;;;5049030;28;19931;-60
2023/08/08 15:31:13;;;;;;;;;;;;;;;;;;5050513;28;19925;-60
2023/08/08 15:33:39;;;;;;;;;;;;;;;;;;5049483;28;19933;-60
2023/08/08 15:36:05;;;;;;;;;;;;;;;;;;5051829;28;19932;-61
2023/08/08 15:38:31;;;;;;;;;;;;;;;;;;5050498;28;19925;-61
2023/08/08 15:40:57;;;;;;;;;;;;;;;;;;5052491;28;19925;-61
2023/08/08 15:43:24;;;;;;;;;;;;;;;;;;5051703;28;20310;-60
2023/08/08 15:45:50;;;;;;;;;;;;;;;;;;5048902;28;19971;-61
2023/08/08 15:48:16;;;;;;;;;;;;;;;;;;5029671;28;19964;-60
2023/08/08 15:50:42;;;;;;;;;;;;;;;;;;5051490;28;19986;-60
2023/08/08 15:53:09;;;;;;;;;;;;;;;;;;5049604;28;19929;-61
2023/08/08 15:55:35;;;;;;;;;;;;;;;;;;5045446;28;20039;-61
2023/08/08 15:58:01;;;;;;;;;;;;;;;;;;5050626;28;20023;-61
2023/08/08 16:00:28;;;;;;;;;;;;;;;;;;5030890;28;19931;-61
2023/08/08 16:02:53;;;;;;;;;;;;;;;;;;5050720;28;20390;-60
2023/08/08 16:05:19;;;;;;;;;;;;;;;;;;5048976;28;19982;-60
2023/08/08 16:07:46;;;;;;;;;;;;;;;;;;5051682;28;19990;-60
2023/08/08 16:10:11;;;;;;;;;;;;;;;;;;5050951;28;19921;-60
2023/08/08 16:12:37;;;;;;;;;;;;;;;;;;5044795;28;20441;-61
2023/08/08 16:15:03;;;;;;;;;;;;;;;;;;5051660;28;20023;-60
2023/08/08 16:17:29;;;;;;;;;;;;;;;;;;5046471;28;19921;-61
2023/08/08 16:19:56;;;;;;;;;;;;;;;;;;5017001;28;19974;-61
2023/08/08 16:22:22;;;;;;;;;;;;;;;;;;5063715;23;19928;-60
2023/08/08 16:24:48;;;;;;;;;;;;;;;;;;5090407;28;20031;-60
2023/08/08 16:27:13;;;;;;;;;;;;;;;;;;5090668;28;20631;-60
2023/08/08 16:29:40;;;;;;;;;;;;;;;;;;5089769;28;20616;-60
2023/08/08 16:32:05;;;;;;;;;;;;;;;;;;5085669;28;19931;-60
2023/08/08 16:34:31;;;;;;;;;;;;;;;;;;5087715;28;19932;-60
2023/08/08 16:36:57;;;;;;;;;;;;;;;;;;5091791;28;19920;-60